createdAt,value
2019-03-22T00:00:31.942Z,62.50
2019-03-22T00:03:00.444Z,56.00
2019-03-22T00:05:28.993Z,55.43
2019-03-22T00:07:57.650Z,55.03
2019-03-22T00:10:26.119Z,54.93
2019-03-22T00:12:54.587Z,53.23
2019-03-22T00:15:23.118Z,52.50
2019-03-22T00:17:51.613Z,52.73
2019-03-22T00:20:20.078Z,52.70
2019-03-22T00:22:48.543Z,50.53
2019-03-22T00:25:17.027Z,54.10
2019-03-22T00:27:45.535Z,49.97
2019-03-22T00:30:14.584Z,55.10
2019-03-22T00:32:43.058Z,48.67
2019-03-22T00:35:12.207Z,46.00
2019-03-22T00:37:40.704Z,47.27
2019-03-22T00:40:10.521Z,48.73
2019-03-22T00:42:39.154Z,49.10
2019-03-22T00:45:09.272Z,45.10
2019-03-22T00:47:37.919Z,48.00
2019-03-22T00:50:08.243Z,47.93
2019-03-22T00:52:36.733Z,47.67
2019-03-22T00:55:06.358Z,47.30
2019-03-22T00:57:34.839Z,46.03
2019-03-22T01:00:04.856Z,47.90
2019-03-22T01:02:33.346Z,47.73
2019-03-22T01:05:01.872Z,47.83
2019-03-22T01:07:30.339Z,47.13
2019-03-22T01:09:58.817Z,48.53
2019-03-22T01:12:27.283Z,46.07
2019-03-22T01:14:55.793Z,46.03
2019-03-22T01:17:24.268Z,55.93
2019-03-22T01:19:52.793Z,62.23
2019-03-22T01:22:21.267Z,62.33
2019-03-22T01:24:49.765Z,66.63
2019-03-22T01:27:18.226Z,72.60
2019-03-22T01:29:46.709Z,74.07
2019-03-22T01:32:15.176Z,77.90
2019-03-22T01:34:43.681Z,78.73
2019-03-22T01:37:12.149Z,82.37
2019-03-22T01:39:40.627Z,81.43
2019-03-22T01:42:10.097Z,83.30
2019-03-22T01:44:38.610Z,82.53
2019-03-22T01:47:07.111Z,82.27
2019-03-22T01:49:35.658Z,84.20
2019-03-22T01:52:04.272Z,83.83
2019-03-22T01:54:32.781Z,82.73
2019-03-22T01:57:03.161Z,84.63
2019-03-22T01:59:31.656Z,78.67
2019-03-22T02:02:00.134Z,80.63
2019-03-22T02:04:28.824Z,81.27
2019-03-22T02:06:57.390Z,79.97
2019-03-22T02:09:25.861Z,78.97
2019-03-22T02:11:54.365Z,79.97
2019-03-22T02:14:22.834Z,79.63
2019-03-22T02:16:51.326Z,77.40
2019-03-22T02:19:19.803Z,74.93
2019-03-22T02:21:48.496Z,73.50
2019-03-22T02:24:16.969Z,77.70
2019-03-22T02:26:45.559Z,72.87
2019-03-22T02:29:14.031Z,78.57
2019-03-22T02:31:42.546Z,76.63
2019-03-22T02:34:11.010Z,77.80
2019-03-22T02:36:39.501Z,79.17
2019-03-22T02:39:07.976Z,82.40
2019-03-22T02:41:36.494Z,86.33
2019-03-22T02:44:05.035Z,86.57
2019-03-22T02:46:33.584Z,82.37
2019-03-22T02:49:02.055Z,80.37
2019-03-22T02:51:30.618Z,87.90
2019-03-22T02:53:59.079Z,85.73
2019-03-22T02:56:27.576Z,79.40
2019-03-22T02:58:59.184Z,76.57
2019-03-22T03:01:26.374Z,75.17
2019-03-22T03:03:54.842Z,76.60
2019-03-22T03:06:23.409Z,76.57
2019-03-22T03:08:51.874Z,74.67
2019-03-22T03:11:20.466Z,74.37
2019-03-22T03:13:49.904Z,78.33
2019-03-22T03:16:18.390Z,77.60
2019-03-22T03:18:46.860Z,75.37
2019-03-22T03:21:15.389Z,74.13
2019-03-22T03:23:43.887Z,76.83
2019-03-22T03:26:12.376Z,80.87
2019-03-22T03:28:40.874Z,77.23
2019-03-22T03:31:09.369Z,75.87
2019-03-22T03:33:37.834Z,73.73
2019-03-22T03:36:06.385Z,74.57
2019-03-22T03:38:34.881Z,73.50
2019-03-22T03:41:03.400Z,73.33
2019-03-22T03:43:31.877Z,74.73
2019-03-22T03:46:01.362Z,67.63
2019-03-22T03:48:29.836Z,75.23
2019-03-22T03:50:58.413Z,73.00
2019-03-22T03:53:26.946Z,71.43
2019-03-22T03:55:55.415Z,72.80
2019-03-22T03:58:23.972Z,70.67
2019-03-22T04:00:52.437Z,67.23
2019-03-22T04:03:20.957Z,102.87
2019-03-22T04:05:49.450Z,77.20
2019-03-22T04:08:17.945Z,70.97
2019-03-22T04:10:46.486Z,66.73
2019-03-22T04:13:14.992Z,69.37
2019-03-22T04:15:43.597Z,68.47
2019-03-22T04:18:12.188Z,69.03
2019-03-22T04:20:40.662Z,69.80
2019-03-22T04:23:09.144Z,64.17
2019-03-22T04:25:37.695Z,68.80
2019-03-22T04:28:06.228Z,68.27
2019-03-22T04:30:34.776Z,70.83
2019-03-22T04:33:06.360Z,71.00
2019-03-22T04:35:33.550Z,71.90
2019-03-22T04:38:02.032Z,67.67
2019-03-22T04:40:30.883Z,64.73
2019-03-22T04:42:59.553Z,66.70
2019-03-22T04:45:31.065Z,65.30
2019-03-22T04:48:08.309Z,68.60
2019-03-22T04:50:39.843Z,63.20
2019-03-22T04:53:11.614Z,61.47
2019-03-22T04:55:43.130Z,62.33
2019-03-22T04:58:14.546Z,61.33
2019-03-22T05:00:43.562Z,60.83
2019-03-22T05:03:13.324Z,59.33
2019-03-22T05:05:45.114Z,57.97
2019-03-22T05:08:16.243Z,56.30
2019-03-22T05:10:45.544Z,54.53
2019-03-22T05:13:17.505Z,54.57
2019-03-22T05:15:46.414Z,55.13
2019-03-22T05:18:15.441Z,55.63
2019-03-22T05:20:46.456Z,55.40
2019-03-22T05:23:18.225Z,52.63
2019-03-22T05:25:48.825Z,51.77
2019-03-22T05:28:20.709Z,56.03
2019-03-22T05:31:01.135Z,56.18
2019-03-22T05:33:29.658Z,54.60
2019-03-22T05:35:58.130Z,55.40
2019-03-22T05:38:26.646Z,55.30
2019-03-22T05:40:55.122Z,58.10
2019-03-22T05:43:23.687Z,56.30
2019-03-22T05:45:52.158Z,56.90
2019-03-22T05:48:21.007Z,58.73
2019-03-22T05:50:49.472Z,57.87
2019-03-22T05:53:17.992Z,57.67
2019-03-22T05:55:46.456Z,58.50
2019-03-22T05:58:14.973Z,57.23
2019-03-22T06:00:43.473Z,55.37
2019-03-22T06:03:11.945Z,57.90
2019-03-22T06:05:40.418Z,58.00
2019-03-22T06:08:09.834Z,56.53
2019-03-22T06:10:38.311Z,56.13
2019-03-22T06:13:06.788Z,56.63
2019-03-22T06:15:35.288Z,55.57
2019-03-22T06:18:04.103Z,52.73
2019-03-22T06:20:32.593Z,49.80
2019-03-22T06:23:01.190Z,48.77
2019-03-22T06:25:29.722Z,48.90
2019-03-22T06:27:58.185Z,49.53
2019-03-22T06:30:26.713Z,46.43
2019-03-22T06:32:55.220Z,44.07
2019-03-22T06:35:24.731Z,45.33
2019-03-22T06:37:53.192Z,45.13
2019-03-22T06:40:21.675Z,43.77
2019-03-22T06:42:50.146Z,42.83
2019-03-22T06:45:18.648Z,41.43
2019-03-22T06:47:47.119Z,39.30
2019-03-22T06:50:15.594Z,38.73
2019-03-22T06:52:44.398Z,37.40
2019-03-22T06:55:13.146Z,37.47
2019-03-22T06:57:41.613Z,36.17
2019-03-22T07:00:13.010Z,34.93
2019-03-22T07:02:41.452Z,35.73
2019-03-22T07:05:09.986Z,33.43
2019-03-22T07:07:38.526Z,33.33
2019-03-22T07:10:08.065Z,32.90
2019-03-22T07:12:36.525Z,32.23
2019-03-22T07:15:08.713Z,32.73
2019-03-22T07:17:37.178Z,34.80
2019-03-22T07:20:09.041Z,35.17
2019-03-22T07:22:37.518Z,36.50
2019-03-22T07:25:08.293Z,34.80
2019-03-22T07:27:37.733Z,34.00
2019-03-22T07:30:17.874Z,33.70
2019-03-22T07:32:39.040Z,33.57
2019-03-22T07:35:07.601Z,33.87
2019-03-22T07:37:36.073Z,30.63
2019-03-22T07:40:08.923Z,31.52
2019-03-22T07:42:37.484Z,35.60
2019-03-22T07:45:07.601Z,33.80
2019-03-22T07:47:39.156Z,32.90
2019-03-22T07:50:09.924Z,31.20
2019-03-22T07:52:38.659Z,32.57
2019-03-22T07:55:07.594Z,29.80
2019-03-22T07:57:37.073Z,30.47
2019-03-22T08:00:11.550Z,31.47
2019-03-22T08:02:40.015Z,29.13
2019-03-22T08:05:08.850Z,30.77
2019-03-22T08:07:37.314Z,31.07
2019-03-22T08:10:07.818Z,32.50
2019-03-22T08:12:36.264Z,28.87
2019-03-22T08:15:08.353Z,29.63
2019-03-22T08:17:36.724Z,29.93
2019-03-22T08:20:08.117Z,30.20
2019-03-22T08:22:36.731Z,29.83
2019-03-22T08:25:05.415Z,28.70
2019-03-22T08:27:33.841Z,29.27
2019-03-22T08:30:02.362Z,29.70
2019-03-22T08:32:30.813Z,29.30
2019-03-22T08:34:59.295Z,29.70
2019-03-22T08:37:27.841Z,28.70
2019-03-22T08:39:56.302Z,28.73
2019-03-22T08:42:24.852Z,28.93
2019-03-22T08:44:54.253Z,27.70
2019-03-22T08:47:33.179Z,26.47
2019-03-22T08:49:53.933Z,25.90
2019-03-22T08:52:22.444Z,27.27
2019-03-22T08:54:50.934Z,26.83
2019-03-22T08:57:19.374Z,25.70
2019-03-22T08:59:47.835Z,25.80
2019-03-22T09:02:16.342Z,26.37
2019-03-22T09:04:44.797Z,24.57
2019-03-22T09:07:13.326Z,24.00
2019-03-22T09:09:42.066Z,23.13
2019-03-22T09:12:10.736Z,23.67
2019-03-22T09:14:39.198Z,23.47
2019-03-22T09:17:07.769Z,24.83
2019-03-22T09:19:36.269Z,23.67
2019-03-22T09:22:04.883Z,24.40
2019-03-22T09:24:39.080Z,22.77
2019-03-22T09:27:03.613Z,21.73
2019-03-22T09:29:32.034Z,21.10
2019-03-22T09:32:00.525Z,20.47
2019-03-22T09:34:33.860Z,22.30
2019-03-22T09:36:59.806Z,19.90
2019-03-22T09:39:28.250Z,21.47
2019-03-22T09:41:56.752Z,21.23
2019-03-22T09:44:28.073Z,19.40
2019-03-22T09:46:55.446Z,19.30
2019-03-22T09:49:23.940Z,20.27
2019-03-22T09:51:55.113Z,19.33
2019-03-22T09:54:22.618Z,19.20
2019-03-22T09:56:51.112Z,20.10
2019-03-22T09:59:19.682Z,18.67
2019-03-22T10:01:49.249Z,20.82
2019-03-22T10:04:17.714Z,21.20
2019-03-22T10:06:46.196Z,22.03
2019-03-22T10:09:15.664Z,21.90
2019-03-22T10:11:44.219Z,22.17
2019-03-22T10:14:12.687Z,21.27
2019-03-22T10:16:41.193Z,22.37
2019-03-22T10:19:09.634Z,20.93
2019-03-22T10:21:38.147Z,20.43
2019-03-22T10:24:06.617Z,21.43
2019-03-22T10:26:35.178Z,22.47
2019-03-22T10:29:06.792Z,23.10
2019-03-22T10:31:37.559Z,23.00
2019-03-22T10:34:04.315Z,24.07
2019-03-22T10:36:32.766Z,24.93
2019-03-22T10:39:01.298Z,23.77
2019-03-22T10:41:29.813Z,25.43
2019-03-22T10:43:58.416Z,24.20
2019-03-22T10:46:26.910Z,24.37
2019-03-22T10:48:55.395Z,24.80
2019-03-22T10:51:23.852Z,24.73
2019-03-22T10:53:52.430Z,25.50
2019-03-22T10:56:20.965Z,25.30
2019-03-22T10:58:49.455Z,25.67
2019-03-22T11:01:17.918Z,25.77
2019-03-22T11:03:46.635Z,28.13
2019-03-22T11:06:25.503Z,27.50
2019-03-22T11:08:45.634Z,26.50
2019-03-22T11:11:14.099Z,27.63
2019-03-22T11:13:43.612Z,30.80
2019-03-22T11:16:12.088Z,28.93
2019-03-22T11:18:40.586Z,28.60
2019-03-22T11:21:09.057Z,27.17
2019-03-22T11:23:37.643Z,26.80
2019-03-22T11:26:06.254Z,27.07
2019-03-22T11:28:34.762Z,24.67
2019-03-22T11:31:04.960Z,26.07
2019-03-22T11:33:33.442Z,27.30
2019-03-22T11:36:01.911Z,26.50
2019-03-22T11:38:30.425Z,27.80
2019-03-22T11:41:00.011Z,26.83
2019-03-22T11:43:28.531Z,26.63
2019-03-22T11:45:57.064Z,26.40
2019-03-22T11:48:25.704Z,26.43
2019-03-22T11:50:54.239Z,27.00
2019-03-22T11:53:22.826Z,26.67
2019-03-22T11:55:51.363Z,26.37
2019-03-22T11:58:19.914Z,25.07
2019-03-22T12:00:48.394Z,25.67
2019-03-22T12:03:16.973Z,27.80
2019-03-22T12:05:45.524Z,27.27
2019-03-22T12:08:14.143Z,27.37
2019-03-22T12:10:42.668Z,26.73
2019-03-22T12:13:20.878Z,26.47
2019-03-22T12:15:49.499Z,29.30
2019-03-22T12:18:18.073Z,27.43
2019-03-22T12:20:48.271Z,28.02
2019-03-22T12:23:16.921Z,27.50
2019-03-22T12:25:45.529Z,25.73
2019-03-22T12:28:14.031Z,24.87
2019-03-22T12:30:42.523Z,26.40
2019-03-22T12:33:11.069Z,26.43
2019-03-22T12:35:39.615Z,27.70
2019-03-22T12:38:08.081Z,25.97
2019-03-22T12:40:36.761Z,25.87
2019-03-22T12:43:05.562Z,26.30
2019-03-22T12:45:34.217Z,25.77
2019-03-22T12:48:02.767Z,25.80
2019-03-22T12:50:33.105Z,25.23
2019-03-22T12:53:01.575Z,24.87
2019-03-22T12:55:32.180Z,25.03
2019-03-22T12:58:00.772Z,24.17
2019-03-22T13:00:29.831Z,23.87
2019-03-22T13:02:58.662Z,22.63
2019-03-22T13:05:27.393Z,23.40
2019-03-22T13:07:56.489Z,23.90
2019-03-22T13:10:26.886Z,22.63
2019-03-22T13:12:55.360Z,23.47
2019-03-22T13:15:23.889Z,22.00
2019-03-22T13:17:52.347Z,23.77
2019-03-22T13:20:21.998Z,25.67
2019-03-22T13:22:50.633Z,22.93
2019-03-22T13:25:21.104Z,23.47
2019-03-22T13:27:49.754Z,23.73
2019-03-22T13:30:21.427Z,22.80
2019-03-22T13:32:52.283Z,24.37
2019-03-22T13:35:20.266Z,24.00
2019-03-22T13:37:49.734Z,25.40
2019-03-22T13:40:18.261Z,24.03
2019-03-22T13:42:46.725Z,25.20
2019-03-22T13:45:16.379Z,23.37
2019-03-22T13:47:44.919Z,22.90
2019-03-22T13:50:13.874Z,24.20
2019-03-22T13:52:42.540Z,24.47
2019-03-22T13:55:11.357Z,22.07
2019-03-22T13:57:39.825Z,23.27
2019-03-22T14:00:11.101Z,24.17
2019-03-22T14:02:39.752Z,22.60
2019-03-22T14:05:09.158Z,23.90
2019-03-22T14:07:37.701Z,21.80
2019-03-22T14:10:11.325Z,21.33
2019-03-22T14:12:42.877Z,21.83
2019-03-22T14:15:11.554Z,22.70
2019-03-22T14:17:40.027Z,21.27
2019-03-22T14:20:11.537Z,22.33
2019-03-22T14:22:38.828Z,22.27
2019-03-22T14:25:07.466Z,22.37
2019-03-22T14:27:35.937Z,23.07
2019-03-22T14:30:06.802Z,23.47
2019-03-22T14:32:35.338Z,22.40
2019-03-22T14:35:05.362Z,23.80
2019-03-22T14:37:33.835Z,23.17
2019-03-22T14:40:02.416Z,23.83
2019-03-22T14:42:30.888Z,22.80
2019-03-22T14:44:59.351Z,24.60
2019-03-22T14:47:27.917Z,23.33
2019-03-22T14:49:56.395Z,23.20
2019-03-22T14:52:24.912Z,23.53
2019-03-22T14:54:54.400Z,23.50
2019-03-22T14:57:22.891Z,24.90
2019-03-22T14:59:58.899Z,24.53
2019-03-22T15:02:21.635Z,24.20
2019-03-22T15:04:50.111Z,23.23
2019-03-22T15:07:19.898Z,23.80
2019-03-22T15:09:48.795Z,23.93
2019-03-22T15:12:17.394Z,23.93
2019-03-22T15:14:47.656Z,24.60
2019-03-22T15:17:34.069Z,22.97
2019-03-22T15:20:20.984Z,23.73
2019-03-22T15:23:07.419Z,23.23
2019-03-22T15:25:49.223Z,22.10
2019-03-22T15:28:25.262Z,21.33
2019-03-22T15:30:56.378Z,21.93
2019-03-22T15:33:34.402Z,20.20
2019-03-22T15:36:01.190Z,20.13
2019-03-22T15:38:47.577Z,20.70
2019-03-22T15:41:16.146Z,21.40
2019-03-22T15:43:44.703Z,18.80
2019-03-22T15:46:13.251Z,20.87
2019-03-22T15:48:41.764Z,19.30
2019-03-22T15:51:10.356Z,21.00
2019-03-22T15:53:39.962Z,18.43
2019-03-22T15:56:08.442Z,19.73
2019-03-22T15:58:37.164Z,19.73
2019-03-22T16:01:05.810Z,19.27
2019-03-22T16:03:43.884Z,20.17
2019-03-22T16:06:04.703Z,19.80
2019-03-22T16:08:33.256Z,18.17
2019-03-22T16:11:01.804Z,18.37
2019-03-22T16:13:30.308Z,18.23
2019-03-22T16:15:58.779Z,18.13
2019-03-22T16:18:27.339Z,19.00
2019-03-22T16:20:59.989Z,17.60
2019-03-22T16:23:26.087Z,18.43
2019-03-22T16:25:54.582Z,18.33
2019-03-22T16:28:23.071Z,17.83
2019-03-22T16:30:51.560Z,16.57
2019-03-22T16:33:20.036Z,17.63
2019-03-22T16:35:48.554Z,18.10
2019-03-22T16:38:17.037Z,17.50
2019-03-22T16:40:45.581Z,17.50
2019-03-22T16:43:14.049Z,17.40
2019-03-22T16:45:44.279Z,17.37
2019-03-22T16:48:12.813Z,16.80
2019-03-22T16:50:41.390Z,23.80
2019-03-22T16:53:09.929Z,31.03
2019-03-22T16:55:38.557Z,25.80
2019-03-22T16:58:07.416Z,22.33
2019-03-22T17:00:36.281Z,21.43
2019-03-22T17:03:06.366Z,21.87
2019-03-22T17:05:36.049Z,22.20
2019-03-22T17:08:04.758Z,21.93
2019-03-22T17:10:33.340Z,20.87
2019-03-22T17:13:01.821Z,22.07
2019-03-22T17:15:30.411Z,22.27
2019-03-22T17:17:58.884Z,21.33
2019-03-22T17:20:27.571Z,20.47
2019-03-22T17:22:56.049Z,22.43
2019-03-22T17:25:24.669Z,21.43
2019-03-22T17:27:53.154Z,21.33
2019-03-22T17:30:21.842Z,22.63
2019-03-22T17:32:50.366Z,23.20
2019-03-22T17:35:18.852Z,21.87
2019-03-22T17:37:47.314Z,25.13
2019-03-22T17:40:16.086Z,25.50
2019-03-22T17:42:44.630Z,27.43
2019-03-22T17:45:15.667Z,27.93
2019-03-22T17:47:44.196Z,28.07
2019-03-22T17:50:14.218Z,28.73
2019-03-22T17:52:42.685Z,27.60
2019-03-22T17:55:12.135Z,27.67
2019-03-22T17:57:40.687Z,28.40
2019-03-22T18:00:15.926Z,25.93
2019-03-22T18:02:44.392Z,26.40
2019-03-22T18:05:13.354Z,25.87
2019-03-22T18:07:41.923Z,25.70
2019-03-22T18:10:11.897Z,25.45
2019-03-22T18:12:40.543Z,28.20
2019-03-22T18:15:13.532Z,28.17
2019-03-22T18:17:42.004Z,28.00
2019-03-22T18:20:13.400Z,32.13
2019-03-22T18:22:41.863Z,35.90
2019-03-22T18:25:11.379Z,40.83
2019-03-22T18:27:40.004Z,41.33
2019-03-22T18:30:16.163Z,41.43
2019-03-22T18:32:44.672Z,39.27
2019-03-22T18:35:13.378Z,40.30
2019-03-22T18:37:41.867Z,40.80
2019-03-22T18:40:15.453Z,42.67
2019-03-22T18:42:43.937Z,43.43
2019-03-22T18:45:13.900Z,51.17
2019-03-22T18:47:42.920Z,53.70
2019-03-22T18:50:12.620Z,53.93
2019-03-22T18:52:41.233Z,51.07
2019-03-22T18:55:10.477Z,49.23
2019-03-22T18:57:38.930Z,48.47
2019-03-22T19:00:10.352Z,50.17
2019-03-22T19:02:38.887Z,47.53
2019-03-22T19:05:08.475Z,47.40
2019-03-22T19:07:37.088Z,45.40
2019-03-22T19:10:11.433Z,47.17
2019-03-22T19:12:40.817Z,45.60
2019-03-22T19:15:13.930Z,44.87
2019-03-22T19:17:42.666Z,39.63
2019-03-22T19:20:13.175Z,40.53
2019-03-22T19:22:41.859Z,40.03
2019-03-22T19:25:10.753Z,40.63
2019-03-22T19:27:39.346Z,42.83
2019-03-22T19:30:11.102Z,42.50
2019-03-22T19:32:39.586Z,41.43
2019-03-22T19:35:09.694Z,41.10
2019-03-22T19:37:39.136Z,40.20
2019-03-22T19:40:09.747Z,42.63
2019-03-22T19:42:38.298Z,41.40
2019-03-22T19:45:10.263Z,42.93
2019-03-22T19:47:38.856Z,43.73
2019-03-22T19:50:09.455Z,45.17
2019-03-22T19:52:38.002Z,47.97
2019-03-22T19:55:10.229Z,56.27
2019-03-22T19:57:38.900Z,58.20
2019-03-22T20:00:14.952Z,54.13
2019-03-22T20:02:49.474Z,55.73
2019-03-22T20:05:29.396Z,52.30
2019-03-22T20:07:57.995Z,52.07
2019-03-22T20:10:26.461Z,61.93
2019-03-22T20:12:55.157Z,54.07
2019-03-22T20:15:23.626Z,54.23
2019-03-22T20:17:52.176Z,53.63
2019-03-22T20:20:20.723Z,51.90
2019-03-22T20:22:49.237Z,49.33
2019-03-22T20:25:17.697Z,48.30
2019-03-22T20:27:46.250Z,47.13
2019-03-22T20:30:16.550Z,44.97
2019-03-22T20:32:45.144Z,42.73
2019-03-22T20:35:16.621Z,43.93
2019-03-22T20:37:44.418Z,46.90
2019-03-22T20:40:17.967Z,44.00
2019-03-22T20:42:46.898Z,41.07
2019-03-22T20:45:23.973Z,40.50
2019-03-22T20:47:49.764Z,40.93
2019-03-22T20:50:18.262Z,41.27
2019-03-22T20:52:46.748Z,38.00
2019-03-22T20:55:15.296Z,38.77
2019-03-22T20:57:45.382Z,40.80
2019-03-22T21:00:16.029Z,40.33
2019-03-22T21:02:44.598Z,42.67
2019-03-22T21:05:13.302Z,40.40
2019-03-22T21:07:41.835Z,41.87
2019-03-22T21:10:11.079Z,41.97
2019-03-22T21:12:39.685Z,43.73
2019-03-22T21:15:12.481Z,43.53
2019-03-22T21:17:41.042Z,44.83
2019-03-22T21:20:10.670Z,44.40
2019-03-22T21:22:39.131Z,44.93
2019-03-22T21:25:09.374Z,45.20
2019-03-22T21:27:37.921Z,41.50
2019-03-22T21:30:11.438Z,43.63
2019-03-22T21:32:45.307Z,41.83
2019-03-22T21:35:21.557Z,43.03
2019-03-22T21:37:40.942Z,44.03
2019-03-22T21:40:11.255Z,43.37
2019-03-22T21:42:39.718Z,44.37
2019-03-22T21:45:09.802Z,45.93
2019-03-22T21:47:38.411Z,44.53
2019-03-22T21:50:08.564Z,42.67
2019-03-22T21:52:38.165Z,43.50
2019-03-22T21:55:07.917Z,45.37
2019-03-22T21:57:36.443Z,46.30
2019-03-22T22:00:12.258Z,46.67
2019-03-22T22:02:40.801Z,45.87
2019-03-22T22:05:09.662Z,45.53
2019-03-22T22:07:38.612Z,48.27
2019-03-22T22:10:08.866Z,50.23
2019-03-22T22:12:37.601Z,48.80
2019-03-22T22:15:13.423Z,51.13
2019-03-22T22:17:42.168Z,50.00
2019-03-22T22:20:11.432Z,51.37
2019-03-22T22:22:40.290Z,50.00
2019-03-22T22:25:10.636Z,49.90
2019-03-22T22:27:39.106Z,50.07
2019-03-22T22:30:10.102Z,48.67
2019-03-22T22:32:38.732Z,48.33
2019-03-22T22:35:10.220Z,47.33
2019-03-22T22:37:38.840Z,50.13
2019-03-22T22:40:10.139Z,48.27
2019-03-22T22:42:40.516Z,52.17
2019-03-22T22:45:10.587Z,50.77
2019-03-22T22:47:39.205Z,51.70
2019-03-22T22:50:09.810Z,53.27
2019-03-22T22:52:38.359Z,54.03
2019-03-22T22:55:07.198Z,51.93
2019-03-22T22:57:35.835Z,53.63
2019-03-22T23:00:13.741Z,52.57
2019-03-22T23:02:42.583Z,54.30
2019-03-22T23:05:11.345Z,55.40
2019-03-22T23:07:40.114Z,56.67
2019-03-22T23:10:09.287Z,53.67
2019-03-22T23:12:37.835Z,54.57
2019-03-22T23:15:07.393Z,53.60
2019-03-22T23:17:36.088Z,54.27
2019-03-22T23:20:06.583Z,54.53
2019-03-22T23:22:35.137Z,53.97
2019-03-22T23:25:04.239Z,53.47
2019-03-22T23:27:32.755Z,54.43
2019-03-22T23:30:01.239Z,57.13
2019-03-22T23:32:29.840Z,56.87
2019-03-22T23:34:59.221Z,56.33
2019-03-22T23:37:27.897Z,57.77
2019-03-22T23:39:56.401Z,58.70
2019-03-22T23:42:24.875Z,57.50
2019-03-22T23:44:53.564Z,57.83
2019-03-22T23:47:22.029Z,56.70
2019-03-22T23:49:50.590Z,58.73
2019-03-22T23:52:20.131Z,59.13
2019-03-22T23:54:48.775Z,60.77
2019-03-22T23:57:17.250Z,61.23
2019-03-22T23:59:45.794Z,59.77
